Time,TemperatureF,DewpointF,PressureIn,WindDirection,WindDirectionDegrees,WindSpeedMPH,WindSpeedGustMPH,Humidity,HourlyPrecipIn,Conditions,Clouds,dailyrainin,SoftwareType,DateUTC
2013-01-20 00:01:00,36.2,28.7,30.14,SSW,196,0.0,0.0,74,0.00,,---,0.00,VWS V13.01,2013-01-20 05:01:00,
2013-01-20 00:02:00,36.3,28.8,30.14,SSW,196,0.0,1.0,74,0.00,,---,0.00,VWS V13.01,2013-01-20 05:02:00,
2013-01-20 00:03:00,36.3,28.5,30.14,SSW,196,0.0,1.0,73,0.00,,---,0.00,VWS V13.01,2013-01-20 05:03:00,
2013-01-20 00:08:00,36.3,28.5,30.14,SSW,196,0.0,0.0,73,0.00,,---,0.00,VWS V13.01,2013-01-20 05:08:00,
2013-01-20 00:13:00,36.3,28.5,30.14,WSW,244,0.0,0.0,73,0.00,,---,0.00,VWS V13.01,2013-01-20 05:13:00,
2013-01-20 00:18:00,36.3,28.5,30.13,WSW,244,0.0,0.0,73,0.00,,---,0.00,VWS V13.01,2013-01-20 05:18:00,
2013-01-20 00:23:00,36.3,28.5,30.13,WSW,244,0.0,0.0,73,0.00,,---,0.00,VWS V13.01,2013-01-20 05:23:00,
2013-01-20 00:28:00,36.3,28.5,30.13,WSW,244,0.0,0.0,73,0.00,,---,0.00,VWS V13.01,2013-01-20 05:28:00,
2013-01-20 00:33:00,36.3,28.5,30.13,WSW,246,0.0,1.0,73,0.00,,---,0.00,VWS V13.01,2013-01-20 05:33:00,
2013-01-20 00:38:00,36.2,28.4,30.13,WSW,246,0.0,0.0,73,0.00,,---,0.00,VWS V13.01,2013-01-20 05:38:00,
2013-01-20 00:43:00,36.2,28.4,30.13,WSW,246,0.0,0.0,73,0.00,,---,0.00,VWS V13.01,2013-01-20 05:43:00,
2013-01-20 00:48:00,36.2,28.4,30.12,WSW,246,0.0,1.0,73,0.00,,---,0.00,VWS V13.01,2013-01-20 05:48:00,
2013-01-20 00:53:00,36.0,28.2,30.12,West,270,0.0,2.0,73,0.00,,---,0.00,VWS V13.01,2013-01-20 05:53:00,
2013-01-20 00:58:00,36.0,28.2,30.12,West,270,0.0,0.0,73,0.00,,---,0.00,VWS V13.01,2013-01-20 05:58:00,
2013-01-20 01:03:00,35.9,28.1,30.12,West,270,0.0,0.0,73,0.00,,---,0.00,VWS V13.01,2013-01-20 06:03:00,
2013-01-20 01:08:00,35.9,28.1,30.12,West,270,0.0,0.0,73,0.00,,---,0.00,VWS V13.01,2013-01-20 06:08:00,
2013-01-20 01:13:00,35.8,28.0,30.12,WSW,244,0.0,3.0,73,0.00,,---,0.00,VWS V13.01,2013-01-20 06:13:00,
2013-01-20 01:18:00,35.8,28.3,30.12,WSW,244,0.0,0.0,74,0.00,,---,0.00,VWS V13.01,2013-01-20 06:18:00,
2013-01-20 01:23:00,35.6,28.1,30.11,WSW,244,0.0,0.0,74,0.00,,---,0.00,VWS V13.01,2013-01-20 06:23:00,
2013-01-20 01:28:00,35.6,28.1,30.11,WSW,244,0.0,3.0,74,0.00,,---,0.00,VWS V13.01,2013-01-20 06:28:00,
2013-01-20 01:33:00,35.5,28.4,30.11,WSW,244,0.0,0.0,75,0.00,,---,0.00,VWS V13.01,2013-01-20 06:33:00,
2013-01-20 01:38:00,35.5,28.4,30.11,WSW,244,0.0,0.0,75,0.00,,---,0.00,VWS V13.01,2013-01-20 06:38:00,
2013-01-20 01:43:00,35.3,28.2,30.11,WSW,244,0.0,0.0,75,0.00,,---,0.00,VWS V13.01,2013-01-20 06:43:00,
2013-01-20 01:48:00,35.3,28.5,30.11,WSW,244,0.0,0.0,76,0.00,,---,0.00,VWS V13.01,2013-01-20 06:48:00,
2013-01-20 01:53:00,35.2,28.4,30.11,WSW,244,0.0,1.0,76,0.00,,---,0.00,VWS V13.01,2013-01-20 06:53:00,
2013-01-20 01:58:00,35.2,28.4,30.10,WSW,246,0.0,1.0,76,0.00,,---,0.00,VWS V13.01,2013-01-20 06:58:00,
2013-01-20 02:03:00,35.0,28.2,30.10,West,263,0.0,3.0,76,0.00,,---,0.00,VWS V13.01,2013-01-20 07:03:00,
2013-01-20 02:08:00,34.9,28.1,30.10,WSW,240,0.0,2.0,76,0.00,,---,0.00,VWS V13.01,2013-01-20 07:08:00,
2013-01-20 02:13:00,34.9,28.1,30.10,WSW,240,0.0,1.0,76,0.00,,---,0.00,VWS V13.01,2013-01-20 07:13:00,
2013-01-20 02:18:00,34.9,28.4,30.10,WSW,240,0.0,0.0,77,0.00,,---,0.00,VWS V13.01,2013-01-20 07:18:00,
2013-01-20 02:23:00,34.7,28.2,30.10,WSW,240,0.0,0.0,77,0.00,,---,0.00,VWS V13.01,2013-01-20 07:23:00,
2013-01-20 02:28:00,34.7,28.2,30.10,WSW,240,0.0,1.0,77,0.00,,---,0.00,VWS V13.01,2013-01-20 07:28:00,
2013-01-20 02:33:00,34.6,28.1,30.10,WSW,240,0.0,0.0,77,0.00,,---,0.00,VWS V13.01,2013-01-20 07:33:00,
2013-01-20 02:38:00,34.6,28.1,30.10,WSW,240,0.0,0.0,77,0.00,,---,0.00,VWS V13.01,2013-01-20 07:38:00,
2013-01-20 02:43:00,34.6,28.1,30.10,WSW,241,0.0,0.0,77,0.00,,---,0.00,VWS V13.01,2013-01-20 07:43:00,
2013-01-20 02:48:00,34.4,28.0,30.10,WSW,241,0.0,0.0,77,0.00,,---,0.00,VWS V13.01,2013-01-20 07:48:00,
2013-01-20 02:53:00,34.4,28.3,30.10,WSW,241,0.0,0.0,78,0.00,,---,0.00,VWS V13.01,2013-01-20 07:53:00,
2013-01-20 02:58:00,34.3,28.2,30.10,WSW,241,0.0,1.0,78,0.00,,---,0.00,VWS V13.01,2013-01-20 07:58:00,
2013-01-20 03:03:00,34.3,28.2,30.10,WSW,241,0.0,0.0,78,0.00,,---,0.00,VWS V13.01,2013-01-20 08:03:00,
2013-01-20 03:08:00,34.1,28.0,30.10,SSW,212,0.0,0.0,78,0.00,,---,0.00,VWS V13.01,2013-01-20 08:08:00,
2013-01-20 03:13:00,34.0,27.9,30.09,SSW,194,0.0,1.0,78,0.00,,---,0.00,VWS V13.01,2013-01-20 08:13:00,
2013-01-20 03:18:00,33.8,27.7,30.10,WSW,251,0.0,2.0,78,0.00,,---,0.00,VWS V13.01,2013-01-20 08:18:00,
2013-01-20 03:23:00,33.8,28.0,30.09,WSW,251,0.0,1.0,79,0.00,,---,0.00,VWS V13.01,2013-01-20 08:23:00,
2013-01-20 03:28:00,33.7,27.9,30.09,WSW,251,0.0,2.0,79,0.00,,---,0.00,VWS V13.01,2013-01-20 08:28:00,
2013-01-20 03:33:00,33.7,27.9,30.09,WSW,251,0.0,2.0,79,0.00,,---,0.00,VWS V13.01,2013-01-20 08:33:00,
2013-01-20 03:38:00,33.7,27.9,30.09,WNW,282,0.0,3.0,79,0.00,,---,0.00,VWS V13.01,2013-01-20 08:38:00,
2013-01-20 03:43:00,33.7,28.2,30.09,WSW,257,0.0,2.0,80,0.00,,---,0.00,VWS V13.01,2013-01-20 08:43:00,
2013-01-20 03:48:00,33.5,28.0,30.09,WSW,257,0.0,0.0,80,0.00,,---,0.00,VWS V13.01,2013-01-20 08:48:00,
2013-01-20 03:53:00,33.5,28.0,30.09,WNW,289,0.0,2.0,80,0.00,,---,0.00,VWS V13.01,2013-01-20 08:53:00,
2013-01-20 03:58:00,33.5,28.0,30.09,WNW,289,0.0,2.0,80,0.00,,---,0.00,VWS V13.01,2013-01-20 08:58:00,
2013-01-20 04:03:00,33.4,27.9,30.09,WNW,289,0.0,0.0,80,0.00,,---,0.00,VWS V13.01,2013-01-20 09:03:00,
2013-01-20 04:08:00,33.4,27.9,30.09,West,281,0.0,0.0,80,0.00,,---,0.00,VWS V13.01,2013-01-20 09:08:00,
2013-01-20 04:13:00,33.2,27.7,30.08,West,281,0.0,0.0,80,0.00,,---,0.00,VWS V13.01,2013-01-20 09:13:00,
2013-01-20 04:18:00,33.2,27.7,30.08,West,281,1.0,1.0,80,0.00,,---,0.00,VWS V13.01,2013-01-20 09:18:00,
2013-01-20 04:23:00,33.2,27.7,30.08,WNW,289,1.0,1.0,80,0.00,,---,0.00,VWS V13.01,2013-01-20 09:23:00,
2013-01-20 04:28:00,33.1,27.6,30.08,WNW,288,0.0,1.0,80,0.00,,---,0.00,VWS V13.01,2013-01-20 09:28:00,
2013-01-20 04:33:00,33.1,27.6,30.08,WNW,288,0.0,1.0,80,0.00,,---,0.00,VWS V13.01,2013-01-20 09:33:00,
2013-01-20 04:38:00,33.1,27.6,30.08,West,273,0.0,3.0,80,0.00,,---,0.00,VWS V13.01,2013-01-20 09:38:00,
2013-01-20 04:43:00,33.1,27.6,30.08,WNW,287,0.0,3.0,80,0.00,,---,0.00,VWS V13.01,2013-01-20 09:43:00,
2013-01-20 04:48:00,33.1,27.6,30.08,WNW,287,0.0,0.0,80,0.00,,---,0.00,VWS V13.01,2013-01-20 09:48:00,
2013-01-20 04:53:00,33.1,27.6,30.08,WNW,287,0.0,1.0,80,0.00,,---,0.00,VWS V13.01,2013-01-20 09:53:00,
2013-01-20 04:58:00,33.1,27.6,30.08,WNW,287,1.0,1.0,80,0.00,,---,0.00,VWS V13.01,2013-01-20 09:58:00,
2013-01-20 05:03:00,33.1,27.6,30.09,WNW,287,0.0,0.0,80,0.00,,---,0.00,VWS V13.01,2013-01-20 10:03:00,
2013-01-20 05:08:00,33.1,27.6,30.09,WNW,287,0.0,2.0,80,0.00,,---,0.00,VWS V13.01,2013-01-20 10:08:00,
2013-01-20 05:13:00,33.1,27.6,30.09,WNW,287,0.0,0.0,80,0.00,,---,0.00,VWS V13.01,2013-01-20 10:13:00,
2013-01-20 05:18:00,33.1,27.6,30.09,WNW,287,0.0,0.0,80,0.00,,---,0.00,VWS V13.01,2013-01-20 10:18:00,
2013-01-20 05:23:00,33.1,27.6,30.09,WNW,287,0.0,1.0,80,0.00,,---,0.00,VWS V13.01,2013-01-20 10:23:00,
2013-01-20 05:28:00,33.1,27.6,30.08,WNW,287,0.0,0.0,80,0.00,,---,0.00,VWS V13.01,2013-01-20 10:28:00,
2013-01-20 05:33:00,33.1,27.6,30.08,WNW,287,3.0,3.0,80,0.00,,---,0.00,VWS V13.01,2013-01-20 10:33:00,
2013-01-20 05:38:00,33.1,27.6,30.08,WNW,287,0.0,1.0,80,0.00,,---,0.00,VWS V13.01,2013-01-20 10:38:00,
2013-01-20 05:43:00,33.1,27.6,30.08,WNW,287,0.0,1.0,80,0.00,,---,0.00,VWS V13.01,2013-01-20 10:43:00,
2013-01-20 05:48:00,33.2,27.7,30.08,WNW,287,0.0,1.0,80,0.00,,---,0.00,VWS V13.01,2013-01-20 10:48:00,
2013-01-20 05:53:00,33.2,27.7,30.08,WNW,295,0.0,3.0,80,0.00,,---,0.00,VWS V13.01,2013-01-20 10:53:00,
2013-01-20 05:58:00,33.4,27.9,30.08,WNW,295,0.0,0.0,80,0.00,,---,0.00,VWS V13.01,2013-01-20 10:58:00,
2013-01-20 06:03:00,33.4,27.9,30.08,WNW,295,0.0,0.0,80,0.00,,---,0.00,VWS V13.01,2013-01-20 11:03:00,
2013-01-20 06:08:00,33.4,27.9,30.08,WNW,295,0.0,0.0,80,0.00,,---,0.00,VWS V13.01,2013-01-20 11:08:00,
2013-01-20 06:13:00,33.4,27.9,30.08,WNW,295,0.0,0.0,80,0.00,,---,0.00,VWS V13.01,2013-01-20 11:13:00,
2013-01-20 06:18:00,33.4,27.9,30.08,WNW,295,0.0,0.0,80,0.00,,---,0.00,VWS V13.01,2013-01-20 11:18:00,
2013-01-20 06:23:00,33.2,27.4,30.08,WNW,295,0.0,0.0,79,0.00,,---,0.00,VWS V13.01,2013-01-20 11:23:00,
2013-01-20 06:28:00,33.2,27.4,30.08,WNW,295,0.0,1.0,79,0.00,,---,0.00,VWS V13.01,2013-01-20 11:28:00,
2013-01-20 06:33:00,33.1,27.3,30.08,West,262,0.0,3.0,79,0.00,,---,0.00,VWS V13.01,2013-01-20 11:33:00,
2013-01-20 06:38:00,33.1,27.6,30.08,West,262,0.0,1.0,80,0.00,,---,0.00,VWS V13.01,2013-01-20 11:38:00,
2013-01-20 06:43:00,33.1,27.6,30.08,West,262,0.0,0.0,80,0.00,,---,0.00,VWS V13.01,2013-01-20 11:43:00,
2013-01-20 06:48:00,32.9,27.4,30.08,West,262,0.0,0.0,80,0.00,,---,0.00,VWS V13.01,2013-01-20 11:48:00,
2013-01-20 06:53:00,32.9,27.4,30.08,West,262,0.0,0.0,80,0.00,,---,0.00,VWS V13.01,2013-01-20 11:53:00,
2013-01-20 06:58:00,32.9,27.4,30.08,West,262,0.0,0.0,80,0.00,,---,0.00,VWS V13.01,2013-01-20 11:58:00,
2013-01-20 07:03:00,32.8,27.3,30.08,West,262,0.0,0.0,80,0.00,,---,0.00,VWS V13.01,2013-01-20 12:03:00,
2013-01-20 07:08:00,32.8,27.3,30.08,West,262,0.0,0.0,80,0.00,,---,0.00,VWS V13.01,2013-01-20 12:08:00,
2013-01-20 07:13:00,32.7,27.2,30.09,West,262,0.0,0.0,80,0.00,,---,0.00,VWS V13.01,2013-01-20 12:13:00,
2013-01-20 07:18:00,32.7,27.2,30.09,West,262,0.0,0.0,80,0.00,,---,0.00,VWS V13.01,2013-01-20 12:18:00,
2013-01-20 07:23:00,32.5,27.0,30.09,West,262,0.0,0.0,80,0.00,,---,0.00,VWS V13.01,2013-01-20 12:23:00,
2013-01-20 07:27:00,32.4,26.9,30.09,West,262,0.0,0.0,80,0.00,,---,0.00,VWS V13.01,2013-01-20 12:27:00,
2013-01-20 07:32:00,32.4,26.9,30.09,West,262,0.0,0.0,80,0.00,,---,0.00,VWS V13.01,2013-01-20 12:32:00,
2013-01-20 07:37:00,32.2,26.7,30.09,West,262,0.0,0.0,80,0.00,,---,0.00,VWS V13.01,2013-01-20 12:37:00,
2013-01-20 07:42:00,32.2,26.7,30.09,West,262,0.0,0.0,80,0.00,,---,0.00,VWS V13.01,2013-01-20 12:42:00,
2013-01-20 07:47:00,32.1,26.6,30.09,West,262,0.0,0.0,80,0.00,,---,0.00,VWS V13.01,2013-01-20 12:47:00,
2013-01-20 07:52:00,31.9,26.4,30.10,West,262,0.0,0.0,80,0.00,,---,0.00,VWS V13.01,2013-01-20 12:52:00,
2013-01-20 07:57:00,31.8,26.6,30.10,West,262,0.0,0.0,81,0.00,,---,0.00,VWS V13.01,2013-01-20 12:57:00,
2013-01-20 08:02:00,31.8,26.6,30.10,West,262,0.0,0.0,81,0.00,,---,0.00,VWS V13.01,2013-01-20 13:02:00,
2013-01-20 08:07:00,31.6,26.5,30.10,West,262,0.0,0.0,81,0.00,,---,0.00,VWS V13.01,2013-01-20 13:07:00,
2013-01-20 08:12:00,31.6,26.5,30.10,West,262,0.0,0.0,81,0.00,,---,0.00,VWS V13.01,2013-01-20 13:12:00,
2013-01-20 08:17:00,31.6,26.5,30.10,West,262,0.0,0.0,81,0.00,,---,0.00,VWS V13.01,2013-01-20 13:17:00,
2013-01-20 08:23:00,31.5,26.6,30.10,West,262,0.0,0.0,82,0.00,,---,0.00,VWS V13.01,2013-01-20 13:23:00,
2013-01-20 08:28:00,31.5,26.6,30.11,West,262,0.0,0.0,82,0.00,,---,0.00,VWS V13.01,2013-01-20 13:28:00,
2013-01-20 08:33:00,31.5,26.9,30.10,West,262,0.0,2.0,83,0.00,,---,0.00,VWS V13.01,2013-01-20 13:33:00,
2013-01-20 08:38:00,31.6,27.0,30.11,West,262,0.0,0.0,83,0.00,,---,0.00,VWS V13.01,2013-01-20 13:38:00,
2013-01-20 08:43:00,31.6,27.0,30.11,West,262,0.0,0.0,83,0.00,,---,0.00,VWS V13.01,2013-01-20 13:43:00,
2013-01-20 08:48:00,31.8,27.2,30.11,West,262,0.0,0.0,83,0.00,,---,0.00,VWS V13.01,2013-01-20 13:48:00,
2013-01-20 08:53:00,31.8,27.2,30.11,West,262,0.0,0.0,83,0.00,,---,0.00,VWS V13.01,2013-01-20 13:53:00,
2013-01-20 08:58:00,32.1,27.8,30.11,West,262,0.0,1.0,84,0.00,,---,0.00,VWS V13.01,2013-01-20 13:58:00,
2013-01-20 09:03:00,32.2,27.9,30.11,West,262,0.0,1.0,84,0.00,,---,0.00,VWS V13.01,2013-01-20 14:03:00,
2013-01-20 09:08:00,32.5,28.2,30.11,West,263,1.0,2.0,84,0.00,,---,0.00,VWS V13.01,2013-01-20 14:08:00,
2013-01-20 09:13:00,32.7,28.4,30.11,West,273,0.0,1.0,84,0.00,,---,0.00,VWS V13.01,2013-01-20 14:13:00,
2013-01-20 09:18:00,33.1,29.1,30.11,West,278,0.0,3.0,85,0.00,,---,0.00,VWS V13.01,2013-01-20 14:18:00,
2013-01-20 09:23:00,35.9,31.2,30.11,WNW,287,0.0,3.0,83,0.00,,---,0.00,VWS V13.01,2013-01-20 14:23:00,
2013-01-20 09:28:00,38.3,32.0,30.11,WNW,297,3.0,5.0,78,0.00,,---,0.00,VWS V13.01,2013-01-20 14:28:00,
2013-01-20 09:33:00,38.9,32.3,30.11,NW,304,0.0,4.0,77,0.00,,---,0.00,VWS V13.01,2013-01-20 14:33:00,
2013-01-20 09:38:00,40.5,32.5,30.11,WNW,303,2.0,3.0,73,0.00,,---,0.00,VWS V13.01,2013-01-20 14:38:00,
2013-01-20 09:43:00,41.6,32.2,30.11,West,280,0.0,3.0,69,0.00,,---,0.00,VWS V13.01,2013-01-20 14:43:00,
2013-01-20 09:48:00,42.6,32.4,30.10,WNW,303,1.0,4.0,67,0.00,,---,0.00,VWS V13.01,2013-01-20 14:48:00,
2013-01-20 09:53:00,43.3,32.0,30.11,West,276,0.0,5.0,64,0.00,,---,0.00,VWS V13.01,2013-01-20 14:53:00,
2013-01-20 09:58:00,43.8,32.4,30.11,NW,307,0.0,2.0,64,0.00,,---,0.00,VWS V13.01,2013-01-20 14:58:00,
2013-01-20 10:03:00,44.3,33.3,30.11,West,269,1.0,2.0,65,0.00,,---,0.00,VWS V13.01,2013-01-20 15:03:00,
2013-01-20 10:08:00,45.2,34.9,30.11,WSW,241,0.0,6.0,67,0.00,,---,0.00,VWS V13.01,2013-01-20 15:08:00,
2013-01-20 10:13:00,45.7,33.8,30.10,WSW,244,0.0,0.0,63,0.00,,---,0.00,VWS V13.01,2013-01-20 15:13:00,
2013-01-20 10:18:00,46.1,34.2,30.10,WSW,251,6.0,6.0,63,0.00,,---,0.00,VWS V13.01,2013-01-20 15:18:00,
2013-01-20 10:23:00,47.3,33.7,30.10,West,269,0.0,3.0,59,0.00,,---,0.00,VWS V13.01,2013-01-20 15:23:00,
2013-01-20 10:28:00,47.9,33.0,30.10,West,264,0.0,4.0,56,0.00,,---,0.00,VWS V13.01,2013-01-20 15:28:00,
2013-01-20 10:33:00,48.8,34.3,30.10,West,270,0.0,2.0,57,0.00,,---,0.00,VWS V13.01,2013-01-20 15:33:00,
2013-01-20 10:38:00,49.4,34.8,30.10,WNW,301,5.0,5.0,57,0.00,,---,0.00,VWS V13.01,2013-01-20 15:38:00,
2013-01-20 10:43:00,50.4,34.4,30.10,WNW,296,0.0,3.0,54,0.00,,---,0.00,VWS V13.01,2013-01-20 15:43:00,
2013-01-20 10:48:00,50.8,35.2,30.10,NW,318,4.0,4.0,55,0.00,,---,0.00,VWS V13.01,2013-01-20 15:48:00,
2013-01-20 10:53:00,51.4,34.4,30.09,West,278,2.0,6.0,52,0.00,,---,0.00,VWS V13.01,2013-01-20 15:53:00,
2013-01-20 10:58:00,51.9,35.8,30.09,West,261,1.0,3.0,54,0.00,,---,0.00,VWS V13.01,2013-01-20 15:58:00,
2013-01-20 11:03:00,52.5,34.4,30.09,WNW,285,0.0,1.0,50,0.00,,---,0.00,VWS V13.01,2013-01-20 16:03:00,
2013-01-20 11:08:00,52.9,35.3,30.09,West,277,1.0,6.0,51,0.00,,---,0.00,VWS V13.01,2013-01-20 16:08:00,
2013-01-20 11:13:00,53.6,34.9,30.08,West,261,3.0,6.0,49,0.00,,---,0.00,VWS V13.01,2013-01-20 16:13:00,
2013-01-20 11:18:00,54.1,35.9,30.08,West,276,0.0,5.0,50,0.00,,---,0.00,VWS V13.01,2013-01-20 16:18:00,
2013-01-20 11:23:00,54.5,35.2,30.08,West,280,1.0,5.0,48,0.00,,---,0.00,VWS V13.01,2013-01-20 16:23:00,
2013-01-20 11:28:00,55.1,36.3,30.08,WNW,292,2.0,2.0,49,0.00,,---,0.00,VWS V13.01,2013-01-20 16:28:00,
2013-01-20 11:33:00,55.7,35.8,30.07,WNW,297,5.0,11.0,47,0.00,,---,0.00,VWS V13.01,2013-01-20 16:33:00,
2013-01-20 11:38:00,56.0,34.4,30.07,NW,306,2.0,13.0,44,0.00,,---,0.00,VWS V13.01,2013-01-20 16:38:00,
2013-01-20 11:43:00,56.5,34.9,30.07,NW,324,4.0,10.0,44,0.00,,---,0.00,VWS V13.01,2013-01-20 16:43:00,
2013-01-20 11:48:00,56.6,34.4,30.06,NW,317,2.0,14.0,43,0.00,,---,0.00,VWS V13.01,2013-01-20 16:48:00,
2013-01-20 11:53:00,56.9,34.7,30.06,West,270,2.0,12.0,43,0.00,,---,0.00,VWS V13.01,2013-01-20 16:53:00,
2013-01-20 11:58:00,56.7,33.3,30.06,WNW,302,4.0,14.0,41,0.00,,---,0.00,VWS V13.01,2013-01-20 16:58:00,
2013-01-20 12:03:00,57.0,34.2,30.05,NW,312,4.0,9.0,42,0.00,,---,0.00,VWS V13.01,2013-01-20 17:03:00,
2013-01-20 12:08:00,57.3,34.4,30.05,WNW,303,4.0,8.0,42,0.00,,---,0.00,VWS V13.01,2013-01-20 17:08:00,
2013-01-20 12:13:00,57.8,33.0,30.05,WNW,286,2.0,6.0,39,0.00,,---,0.00,VWS V13.01,2013-01-20 17:13:00,
2013-01-20 12:18:00,57.8,31.7,30.04,NW,305,2.0,10.0,37,0.00,,---,0.00,VWS V13.01,2013-01-20 17:18:00,
2013-01-20 12:23:00,57.8,33.7,30.04,NW,322,3.0,8.0,40,0.00,,---,0.00,VWS V13.01,2013-01-20 17:23:00,
2013-01-20 12:28:00,58.1,33.3,30.04,WNW,303,2.0,10.0,39,0.00,,---,0.00,VWS V13.01,2013-01-20 17:28:00,
2013-01-20 12:33:00,58.4,32.9,30.03,NW,318,3.0,11.0,38,0.00,,---,0.00,VWS V13.01,2013-01-20 17:33:00,
2013-01-20 12:38:00,58.7,32.5,30.03,North,6,6.0,11.0,37,0.00,,---,0.00,VWS V13.01,2013-01-20 17:38:00,
2013-01-20 12:43:00,58.6,32.4,30.03,NW,304,7.0,11.0,37,0.00,,---,0.00,VWS V13.01,2013-01-20 17:43:00,
2013-01-20 12:48:00,58.7,33.2,30.03,WNW,293,4.0,15.0,38,0.00,,---,0.00,VWS V13.01,2013-01-20 17:48:00,
2013-01-20 12:53:00,58.6,32.4,30.03,West,266,10.0,20.0,37,0.00,,---,0.00,VWS V13.01,2013-01-20 17:53:00,
2013-01-20 12:58:00,58.6,33.1,30.02,WNW,301,7.0,7.0,38,0.00,,---,0.00,VWS V13.01,2013-01-20 17:58:00,
2013-01-20 13:03:00,58.9,32.7,30.02,NW,309,10.0,17.0,37,0.00,,---,0.00,VWS V13.01,2013-01-20 18:03:00,
2013-01-20 13:08:00,58.4,32.2,30.02,NW,316,7.0,13.0,37,0.00,,---,0.00,VWS V13.01,2013-01-20 18:08:00,
2013-01-20 13:13:00,58.6,33.1,30.02,NW,314,3.0,12.0,38,0.00,,---,0.00,VWS V13.01,2013-01-20 18:13:00,
2013-01-20 13:18:00,58.9,32.7,30.02,NW,320,6.0,23.0,37,0.00,,---,0.00,VWS V13.01,2013-01-20 18:18:00,
2013-01-20 13:23:00,59.2,33.0,30.01,WNW,302,7.0,14.0,37,0.00,,---,0.00,VWS V13.01,2013-01-20 18:23:00,
2013-01-20 13:28:00,59.3,33.7,30.01,WNW,293,6.0,13.0,38,0.00,,---,0.00,VWS V13.01,2013-01-20 18:28:00,
2013-01-20 13:33:00,59.5,33.2,30.01,NW,320,12.0,19.0,37,0.00,,---,0.00,VWS V13.01,2013-01-20 18:33:00,
2013-01-20 13:38:00,59.3,31.7,30.01,WNW,284,0.0,16.0,35,0.00,,---,0.00,VWS V13.01,2013-01-20 18:38:00,
2013-01-20 13:43:00,59.6,34.0,30.01,NNW,332,6.0,6.0,38,0.00,,---,0.00,VWS V13.01,2013-01-20 18:43:00,
2013-01-20 13:48:00,59.5,31.1,30.01,West,278,4.0,13.0,34,0.00,,---,0.00,VWS V13.01,2013-01-20 18:48:00,
2013-01-20 13:53:00,59.9,32.9,30.01,WNW,289,2.0,7.0,36,0.00,,---,0.00,VWS V13.01,2013-01-20 18:53:00,
2013-01-20 13:58:00,59.9,32.9,30.01,WNW,287,0.0,9.0,36,0.00,,---,0.00,VWS V13.01,2013-01-20 18:58:00,
2013-01-20 14:03:00,59.9,34.2,30.01,WNW,302,4.0,17.0,38,0.00,,---,0.00,VWS V13.01,2013-01-20 19:03:00,
2013-01-20 14:08:00,59.6,31.9,30.01,WNW,294,4.0,16.0,35,0.00,,---,0.00,VWS V13.01,2013-01-20 19:08:00,
2013-01-20 14:13:00,59.6,32.6,30.00,West,268,1.0,6.0,36,0.00,,---,0.00,VWS V13.01,2013-01-20 19:13:00,
2013-01-20 14:18:00,59.6,33.3,30.00,WNW,284,3.0,13.0,37,0.00,,---,0.00,VWS V13.01,2013-01-20 19:18:00,
2013-01-20 14:23:00,59.9,32.2,30.00,West,279,3.0,9.0,35,0.00,,---,0.00,VWS V13.01,2013-01-20 19:23:00,
2013-01-20 14:28:00,59.9,32.2,30.00,NW,305,1.0,11.0,35,0.00,,---,0.00,VWS V13.01,2013-01-20 19:28:00,
2013-01-20 14:33:00,59.9,32.9,30.00,West,262,7.0,16.0,36,0.00,,---,0.00,VWS V13.01,2013-01-20 19:33:00,
2013-01-20 14:38:00,59.9,32.2,30.00,WNW,300,6.0,15.0,35,0.00,,---,0.00,VWS V13.01,2013-01-20 19:38:00,
2013-01-20 14:43:00,59.9,32.2,30.00,NNW,331,7.0,12.0,35,0.00,,---,0.00,VWS V13.01,2013-01-20 19:43:00,
2013-01-20 14:48:00,60.1,33.1,30.00,WNW,300,6.0,15.0,36,0.00,,---,0.00,VWS V13.01,2013-01-20 19:48:00,
2013-01-20 14:52:00,59.9,32.2,30.00,WNW,294,13.0,18.0,35,0.00,,---,0.00,VWS V13.01,2013-01-20 19:52:00,
2013-01-20 14:57:00,59.9,32.2,30.00,WNW,297,4.0,11.0,35,0.00,,---,0.00,VWS V13.01,2013-01-20 19:57:00,
2013-01-20 15:02:00,59.9,32.2,30.00,NW,310,5.0,9.0,35,0.00,,---,0.00,VWS V13.01,2013-01-20 20:02:00,
2013-01-20 15:07:00,59.9,30.0,30.00,WNW,295,4.0,16.0,32,0.00,,---,0.00,VWS V13.01,2013-01-20 20:07:00,
2013-01-20 15:12:00,59.9,32.2,30.00,WNW,297,3.0,12.0,35,0.00,,---,0.00,VWS V13.01,2013-01-20 20:12:00,
2013-01-20 15:17:00,59.9,30.8,30.00,WNW,284,0.0,9.0,33,0.00,,---,0.00,VWS V13.01,2013-01-20 20:17:00,
2013-01-20 15:22:00,59.9,30.8,30.00,WNW,287,6.0,11.0,33,0.00,,---,0.00,VWS V13.01,2013-01-20 20:22:00,
2013-01-20 15:27:00,60.1,30.9,30.00,WNW,288,0.0,11.0,33,0.00,,---,0.00,VWS V13.01,2013-01-20 20:27:00,
2013-01-20 15:32:00,60.1,33.1,30.00,NW,312,7.0,11.0,36,0.00,,---,0.00,VWS V13.01,2013-01-20 20:32:00,
2013-01-20 15:37:00,59.9,33.6,30.00,WNW,287,1.0,12.0,37,0.00,,---,0.00,VWS V13.01,2013-01-20 20:37:00,
2013-01-20 15:42:00,59.8,32.1,30.00,West,260,0.0,5.0,35,0.00,,---,0.00,VWS V13.01,2013-01-20 20:42:00,
2013-01-20 15:47:00,59.8,32.8,30.00,WNW,288,3.0,11.0,36,0.00,,---,0.00,VWS V13.01,2013-01-20 20:47:00,
2013-01-20 15:52:00,59.6,32.6,30.00,NW,322,5.0,10.0,36,0.00,,---,0.00,VWS V13.01,2013-01-20 20:52:00,
2013-01-20 15:57:00,59.6,30.5,30.00,SSW,209,0.0,11.0,33,0.00,,---,0.00,VWS V13.01,2013-01-20 20:57:00,
2013-01-20 16:02:00,59.8,32.1,30.00,WNW,293,0.0,6.0,35,0.00,,---,0.00,VWS V13.01,2013-01-20 21:02:00,
2013-01-20 16:07:00,59.6,30.5,30.00,West,278,10.0,16.0,33,0.00,,---,0.00,VWS V13.01,2013-01-20 21:07:00,
2013-01-20 16:12:00,59.6,29.0,30.00,NW,306,1.0,12.0,31,0.00,,---,0.00,VWS V13.01,2013-01-20 21:12:00,
2013-01-20 16:18:00,59.5,28.9,30.00,WNW,296,12.0,12.0,31,0.00,,---,0.00,VWS V13.01,2013-01-20 21:18:00,
2013-01-20 16:22:00,59.3,28.7,30.00,WNW,302,7.0,12.0,31,0.00,,---,0.00,VWS V13.01,2013-01-20 21:22:00,
2013-01-20 16:27:00,59.0,26.8,30.00,NNW,333,5.0,14.0,29,0.00,,---,0.00,VWS V13.01,2013-01-20 21:27:00,
2013-01-20 16:32:00,58.9,26.7,30.00,NW,312,1.0,10.0,29,0.00,,---,0.00,VWS V13.01,2013-01-20 21:32:00,
2013-01-20 16:38:00,58.7,25.7,30.00,NNW,328,15.0,15.0,28,0.00,,---,0.00,VWS V13.01,2013-01-20 21:38:00,
2013-01-20 16:43:00,58.4,24.6,30.00,NNW,347,12.0,12.0,27,0.00,,---,0.00,VWS V13.01,2013-01-20 21:43:00,
2013-01-20 16:48:00,58.3,26.2,30.01,NW,311,9.0,9.0,29,0.00,,---,0.00,VWS V13.01,2013-01-20 21:48:00,
2013-01-20 16:53:00,58.1,25.2,30.01,WNW,295,3.0,7.0,28,0.00,,---,0.00,VWS V13.01,2013-01-20 21:53:00,
2013-01-20 16:58:00,58.0,26.0,30.01,NW,307,3.0,10.0,29,0.00,,---,0.00,VWS V13.01,2013-01-20 21:58:00,
2013-01-20 17:03:00,57.6,24.8,30.01,NW,306,7.0,7.0,28,0.00,,---,0.00,VWS V13.01,2013-01-20 22:03:00,
2013-01-20 17:08:00,57.5,24.7,30.01,NW,311,3.0,7.0,28,0.00,,---,0.00,VWS V13.01,2013-01-20 22:08:00,
2013-01-20 17:13:00,57.3,24.5,30.02,WNW,295,2.0,7.0,28,0.00,,---,0.00,VWS V13.01,2013-01-20 22:13:00,
2013-01-20 17:18:00,57.0,24.2,30.02,NW,322,2.0,7.0,28,0.00,,---,0.00,VWS V13.01,2013-01-20 22:18:00,
2013-01-20 17:23:00,56.7,24.0,30.02,NW,325,0.0,11.0,28,0.00,,---,0.00,VWS V13.01,2013-01-20 22:23:00,
2013-01-20 17:28:00,56.5,23.8,30.03,WNW,300,4.0,7.0,28,0.00,,---,0.00,VWS V13.01,2013-01-20 22:28:00,
2013-01-20 17:33:00,56.3,23.6,30.03,West,272,0.0,2.0,28,0.00,,---,0.00,VWS V13.01,2013-01-20 22:33:00,
2013-01-20 17:38:00,56.0,24.2,30.03,NW,304,1.0,5.0,29,0.00,,---,0.00,VWS V13.01,2013-01-20 22:38:00,
2013-01-20 17:43:00,55.9,24.9,30.04,West,266,0.0,3.0,30,0.00,,---,0.00,VWS V13.01,2013-01-20 22:43:00,
2013-01-20 17:48:00,55.6,24.7,30.04,West,276,0.0,4.0,30,0.00,,---,0.00,VWS V13.01,2013-01-20 22:48:00,
2013-01-20 17:53:00,55.3,26.0,30.04,WNW,287,0.0,2.0,32,0.00,,---,0.00,VWS V13.01,2013-01-20 22:53:00,
2013-01-20 17:58:00,55.0,25.7,30.04,WNW,287,0.0,1.0,32,0.00,,---,0.00,VWS V13.01,2013-01-20 22:58:00,
2013-01-20 18:03:00,54.5,26.7,30.05,WNW,287,0.0,1.0,34,0.00,,---,0.00,VWS V13.01,2013-01-20 23:03:00,
2013-01-20 18:08:00,54.1,25.6,30.05,NW,304,0.0,3.0,33,0.00,,---,0.00,VWS V13.01,2013-01-20 23:08:00,
2013-01-20 18:13:00,53.8,26.1,30.05,NW,309,3.0,3.0,34,0.00,,---,0.00,VWS V13.01,2013-01-20 23:13:00,
2013-01-20 18:18:00,53.5,25.8,30.06,NW,324,3.0,4.0,34,0.00,,---,0.00,VWS V13.01,2013-01-20 23:18:00,
2013-01-20 18:23:00,53.2,26.3,30.06,NNW,330,0.0,3.0,35,0.00,,---,0.00,VWS V13.01,2013-01-20 23:23:00,
2013-01-20 18:28:00,52.9,26.0,30.06,NNW,330,0.0,3.0,35,0.00,,---,0.00,VWS V13.01,2013-01-20 23:28:00,
2013-01-20 18:33:00,52.6,26.4,30.06,NW,309,7.0,7.0,36,0.00,,---,0.00,VWS V13.01,2013-01-20 23:33:00,
2013-01-20 18:38:00,52.3,26.2,30.06,NNW,341,4.0,5.0,36,0.00,,---,0.00,VWS V13.01,2013-01-20 23:38:00,
2013-01-20 18:43:00,52.0,26.5,30.06,NNW,332,2.0,4.0,37,0.00,,---,0.00,VWS V13.01,2013-01-20 23:43:00,
2013-01-20 18:48:00,51.7,26.3,30.06,NNW,332,2.0,3.0,37,0.00,,---,0.00,VWS V13.01,2013-01-20 23:48:00,
2013-01-20 18:53:00,51.6,26.2,30.07,NNW,332,0.0,1.0,37,0.00,,---,0.00,VWS V13.01,2013-01-20 23:53:00,
2013-01-20 18:58:00,51.3,27.2,30.07,NNW,338,0.0,2.0,39,0.00,,---,0.00,VWS V13.01,2013-01-20 23:58:00,
2013-01-20 19:03:00,51.1,27.6,30.07,NNW,338,0.0,2.0,40,0.00,,---,0.00,VWS V13.01,2013-01-21 00:03:00,
2013-01-20 19:08:00,51.0,28.1,30.07,NNW,338,0.0,0.0,41,0.00,,---,0.00,VWS V13.01,2013-01-21 00:08:00,
2013-01-20 19:13:00,50.7,27.3,30.07,NNW,338,0.0,0.0,40,0.00,,---,0.00,VWS V13.01,2013-01-21 00:13:00,
2013-01-20 19:18:00,50.4,27.6,30.07,NNE,20,0.0,1.0,41,0.00,,---,0.00,VWS V13.01,2013-01-21 00:18:00,
2013-01-20 19:23:00,49.9,27.1,30.08,NNE,20,0.0,2.0,41,0.00,,---,0.00,VWS V13.01,2013-01-21 00:23:00,
2013-01-20 19:28:00,49.6,26.9,30.08,NNW,345,1.0,3.0,41,0.00,,---,0.00,VWS V13.01,2013-01-21 00:28:00,
2013-01-20 19:33:00,49.2,26.5,30.08,NW,312,2.0,4.0,41,0.00,,---,0.00,VWS V13.01,2013-01-21 00:33:00,
2013-01-20 19:38:00,48.9,26.2,30.08,NW,312,0.0,2.0,41,0.00,,---,0.00,VWS V13.01,2013-01-21 00:38:00,
2013-01-20 19:43:00,48.6,26.0,30.08,NW,316,6.0,7.0,41,0.00,,---,0.00,VWS V13.01,2013-01-21 00:43:00,
2013-01-20 19:48:00,48.5,26.5,30.08,NW,308,6.0,6.0,42,0.00,,---,0.00,VWS V13.01,2013-01-21 00:48:00,
2013-01-20 19:53:00,48.3,26.9,30.08,NNW,329,1.0,6.0,43,0.00,,---,0.00,VWS V13.01,2013-01-21 00:53:00,
2013-01-20 19:58:00,48.2,26.8,30.08,North,360,3.0,7.0,43,0.00,,---,0.00,VWS V13.01,2013-01-21 00:58:00,
2013-01-20 20:03:00,48.2,26.8,30.08,North,352,0.0,5.0,43,0.00,,---,0.00,VWS V13.01,2013-01-21 01:03:00,
2013-01-20 20:08:00,48.2,26.8,30.08,NNW,339,4.0,6.0,43,0.00,,---,0.00,VWS V13.01,2013-01-21 01:08:00,
2013-01-20 20:13:00,48.2,26.8,30.08,NNW,333,3.0,5.0,43,0.00,,---,0.00,VWS V13.01,2013-01-21 01:13:00,
2013-01-20 20:18:00,48.2,26.8,30.08,NNW,328,3.0,4.0,43,0.00,,---,0.00,VWS V13.01,2013-01-21 01:18:00,
2013-01-20 20:23:00,48.0,26.6,30.08,NW,308,1.0,4.0,43,0.00,,---,0.00,VWS V13.01,2013-01-21 01:23:00,
2013-01-20 20:28:00,48.0,27.1,30.08,NW,311,1.0,3.0,44,0.00,,---,0.00,VWS V13.01,2013-01-21 01:28:00,
2013-01-20 20:33:00,47.9,27.0,30.09,NW,311,0.0,2.0,44,0.00,,---,0.00,VWS V13.01,2013-01-21 01:33:00,
2013-01-20 20:38:00,47.6,26.8,30.09,NW,316,1.0,3.0,44,0.00,,---,0.00,VWS V13.01,2013-01-21 01:38:00,
2013-01-20 20:43:00,47.4,27.1,30.09,NNW,334,0.0,5.0,45,0.00,,---,0.00,VWS V13.01,2013-01-21 01:43:00,
2013-01-20 20:48:00,47.3,27.6,30.09,NNW,334,0.0,1.0,46,0.00,,---,0.00,VWS V13.01,2013-01-21 01:48:00,
2013-01-20 20:53:00,47.0,27.8,30.09,NNW,334,0.0,1.0,47,0.00,,---,0.00,VWS V13.01,2013-01-21 01:53:00,
2013-01-20 20:58:00,46.8,27.6,30.09,NNW,334,0.0,1.0,47,0.00,,---,0.00,VWS V13.01,2013-01-21 01:58:00,
2013-01-20 21:03:00,46.5,27.9,30.08,NNW,334,0.0,1.0,48,0.00,,---,0.00,VWS V13.01,2013-01-21 02:03:00,
2013-01-20 21:08:00,46.1,27.5,30.08,NNW,333,0.0,4.0,48,0.00,,---,0.00,VWS V13.01,2013-01-21 02:08:00,
2013-01-20 21:13:00,45.7,27.1,30.08,NNW,333,0.0,4.0,48,0.00,,---,0.00,VWS V13.01,2013-01-21 02:13:00,
2013-01-20 21:18:00,45.5,27.0,30.08,NNW,333,1.0,2.0,48,0.00,,---,0.00,VWS V13.01,2013-01-21 02:18:00,
2013-01-20 21:23:00,45.4,27.4,30.08,NNW,332,0.0,3.0,49,0.00,,---,0.00,VWS V13.01,2013-01-21 02:23:00,
2013-01-20 21:28:00,45.1,27.6,30.08,NNW,332,0.0,2.0,50,0.00,,---,0.00,VWS V13.01,2013-01-21 02:28:00,
2013-01-20 21:33:00,44.8,27.8,30.08,NNW,332,0.0,1.0,51,0.00,,---,0.00,VWS V13.01,2013-01-21 02:33:00,
2013-01-20 21:38:00,44.6,28.1,30.08,NNW,341,0.0,3.0,52,0.00,,---,0.00,VWS V13.01,2013-01-21 02:38:00,
2013-01-20 21:43:00,44.3,27.8,30.08,NNW,347,1.0,3.0,52,0.00,,---,0.00,VWS V13.01,2013-01-21 02:43:00,
2013-01-20 21:48:00,44.1,28.5,30.08,NNW,347,0.0,3.0,54,0.00,,---,0.00,VWS V13.01,2013-01-21 02:48:00,
2013-01-20 21:53:00,43.8,29.6,30.08,NNW,347,0.0,0.0,57,0.00,,---,0.00,VWS V13.01,2013-01-21 02:53:00,
2013-01-20 21:58:00,43.3,30.0,30.09,NNW,347,0.0,0.0,59,0.00,,---,0.00,VWS V13.01,2013-01-21 02:58:00,
2013-01-20 22:03:00,42.9,30.0,30.08,NNW,347,0.0,0.0,60,0.00,,---,0.00,VWS V13.01,2013-01-21 03:03:00,
2013-01-20 22:08:00,42.6,29.7,30.08,NNW,347,0.0,0.0,60,0.00,,---,0.00,VWS V13.01,2013-01-21 03:08:00,
2013-01-20 22:13:00,42.3,29.0,30.08,NNW,347,0.0,0.0,59,0.00,,---,0.00,VWS V13.01,2013-01-21 03:13:00,
2013-01-20 22:18:00,42.1,28.8,30.08,NNW,347,0.0,0.0,59,0.00,,---,0.00,VWS V13.01,2013-01-21 03:18:00,
2013-01-20 22:23:00,41.8,28.5,30.08,NNW,347,0.0,0.0,59,0.00,,---,0.00,VWS V13.01,2013-01-21 03:23:00,
2013-01-20 22:28:00,41.5,28.7,30.08,NNW,347,0.0,0.0,60,0.00,,---,0.00,VWS V13.01,2013-01-21 03:28:00,
2013-01-20 22:33:00,41.2,28.4,30.08,NNW,347,0.0,0.0,60,0.00,,---,0.00,VWS V13.01,2013-01-21 03:33:00,
2013-01-20 22:38:00,40.9,28.5,30.08,NNW,347,0.0,0.0,61,0.00,,---,0.00,VWS V13.01,2013-01-21 03:38:00,
2013-01-20 22:43:00,40.8,28.8,30.08,NNW,347,0.0,0.0,62,0.00,,---,0.00,VWS V13.01,2013-01-21 03:43:00,
2013-01-20 22:48:00,40.5,28.5,30.08,NNW,347,0.0,0.0,62,0.00,,---,0.00,VWS V13.01,2013-01-21 03:48:00,
2013-01-20 22:53:00,40.3,28.3,30.08,NNW,347,0.0,0.0,62,0.00,,---,0.00,VWS V13.01,2013-01-21 03:53:00,
2013-01-20 22:58:00,40.1,28.1,30.08,NNW,347,0.0,0.0,62,0.00,,---,0.00,VWS V13.01,2013-01-21 03:58:00,
2013-01-20 23:03:00,39.9,28.0,30.08,NNW,347,0.0,0.0,62,0.00,,---,0.00,VWS V13.01,2013-01-21 04:03:00,
2013-01-20 23:08:00,39.8,28.2,30.08,NNW,347,0.0,0.0,63,0.00,,---,0.00,VWS V13.01,2013-01-21 04:08:00,
2013-01-20 23:13:00,39.6,28.8,30.08,NNW,347,0.0,0.0,65,0.00,,---,0.00,VWS V13.01,2013-01-21 04:13:00,
2013-01-20 23:18:00,39.3,28.5,30.08,NNW,347,0.0,0.0,65,0.00,,---,0.00,VWS V13.01,2013-01-21 04:18:00,
2013-01-20 23:23:00,39.2,28.4,30.07,NNW,347,0.0,0.0,65,0.00,,---,0.00,VWS V13.01,2013-01-21 04:23:00,
2013-01-20 23:28:00,39.1,28.3,30.07,NNW,347,0.0,0.0,65,0.00,,---,0.00,VWS V13.01,2013-01-21 04:28:00,
2013-01-20 23:33:00,38.8,28.4,30.07,NNW,347,0.0,0.0,66,0.00,,---,0.00,VWS V13.01,2013-01-21 04:33:00,
2013-01-20 23:38:00,38.6,28.6,30.07,NNW,347,0.0,0.0,67,0.00,,---,0.00,VWS V13.01,2013-01-21 04:38:00,
2013-01-20 23:43:00,38.5,28.5,30.07,NNW,347,0.0,0.0,67,0.00,,---,0.00,VWS V13.01,2013-01-21 04:43:00,
2013-01-20 23:48:00,38.3,28.7,30.07,NNW,347,0.0,0.0,68,0.00,,---,0.00,VWS V13.01,2013-01-21 04:48:00,
2013-01-20 23:53:00,38.0,28.4,30.07,NNW,347,0.0,0.0,68,0.00,,---,0.00,VWS V13.01,2013-01-21 04:53:00,
2013-01-20 23:58:00,37.9,28.6,30.07,NNW,347,0.0,0.0,69,0.00,,---,0.00,VWS V13.01,2013-01-21 04:58:00,